Time;durP1;ratioP1;P1;durP2;ratioP2;P2;SDS_P1;SDS_P2;PMS_P1;PMS_P2;Temp;Humidity;BMP_temperature;BMP_pressure;BME280_temperature;BME280_humidity;BME280_pressure;Samples;Min_cycle;Max_cycle;Signal;HPM_P1;HPM_P2
2021/12/05 00:22:59;;;;;;;18.20;4.25;;;;;;;6.00;100.00;99767.75;4974756;28;20050;-89
2021/12/05 00:25:29;;;;;;;19.48;3.75;;;;;;;5.73;100.00;99751.31;4974803;28;20051;-89
2021/12/05 00:28:32;;;;;;;19.92;4.25;;;;;;;6.14;100.00;99765.53;4973941;28;20061;-89
2021/12/05 00:52:25;;;;;;;21.35;3.70;;;;;;;5.92;100.00;99791.38;4992884;28;20057;-89
2021/12/05 01:08:48;;;;;;;13.50;3.45;;;;;;;6.20;100.00;99873.66;4993567;28;20061;-89
2021/12/05 01:16:39;;;;;;;16.08;3.28;;;;;;;6.01;100.00;99858.66;4980461;28;20141;-88
2021/12/05 01:19:09;;;;;;;15.25;3.58;;;;;;;6.25;100.00;99890.78;4973005;28;20138;-89
2021/12/05 01:21:38;;;;;;;16.02;3.25;;;;;;;6.47;100.00;99916.91;4984086;28;20068;-88
2021/12/05 01:24:20;;;;;;;16.92;2.80;;;;;;;6.20;100.00;99877.09;4991943;28;20050;-88
2021/12/05 01:34:56;;;;;;;14.65;3.30;;;;;;;6.22;100.00;99901.28;4992794;28;20050;-88
2021/12/05 02:41:41;;;;;;;27.55;5.47;;;;;;;6.05;100.00;100031.75;4995767;28;20484;-90
2021/12/05 02:44:21;;;;;;;10.80;2.83;;;;;;;6.40;100.00;100081.00;4996041;28;20046;-89
2021/12/05 02:47:04;;;;;;;15.57;2.88;;;;;;;6.29;100.00;100036.28;4996603;28;20480;-89
2021/12/05 02:49:34;;;;;;;16.08;2.97;;;;;;;6.01;100.00;100024.13;4996675;28;20481;-89
2021/12/05 02:52:07;;;;;;;16.88;3.45;;;;;;;6.17;100.00;100058.31;4981273;28;20050;-89
2021/12/05 02:54:41;;;;;;;9.98;2.97;;;;;;;6.35;100.00;100070.72;4983505;28;20054;-89
2021/12/05 02:57:10;;;;;;;12.20;2.55;;;;;;;6.43;100.00;100104.31;4995144;28;20042;-89
2021/12/05 03:02:11;;;;;;;11.00;2.22;;;;;;;6.10;100.00;100082.78;4990048;28;20056;-89
2021/12/05 03:04:42;;;;;;;17.30;3.00;;;;;;;6.23;100.00;100129.16;4995789;28;20054;-89
2021/12/05 03:07:11;;;;;;;13.65;2.63;;;;;;;6.16;100.00;100103.38;4994525;28;20046;-89
2021/12/05 03:09:41;;;;;;;8.93;2.22;;;;;;;5.90;100.00;100098.00;4995009;28;20565;-88
2021/12/05 03:12:10;;;;;;;14.80;2.80;;;;;;;5.93;100.00;100071.06;4994410;28;20412;-89
2021/12/05 03:14:38;;;;;;;13.68;2.55;;;;;;;6.15;100.00;100107.72;4995128;28;20054;-88
2021/12/05 03:17:05;;;;;;;12.65;2.38;;;;;;;6.31;100.00;100141.94;4994979;28;20481;-89
2021/12/05 03:19:32;;;;;;;9.45;2.38;;;;;;;5.77;100.00;100130.44;4995821;28;20572;-89
2021/12/05 03:21:59;;;;;;;14.45;4.30;;;;;;;6.11;100.00;100136.44;4993282;28;20055;-89
2021/12/05 03:24:26;;;;;;;12.00;3.08;;;;;;;6.12;100.00;100153.75;4995355;28;20124;-89
2021/12/05 03:26:54;;;;;;;14.50;2.63;;;;;;;5.81;100.00;100152.84;4974967;28;20054;-88
2021/12/05 03:29:22;;;;;;;18.63;2.80;;;;;;;5.96;100.00;100155.94;4974374;28;20043;-88
2021/12/05 03:31:52;;;;;;;15.23;3.08;;;;;;;5.76;100.00;100159.06;4986642;28;20054;-88
2021/12/05 03:34:20;;;;;;;13.98;2.97;;;;;;;5.78;100.00;100155.50;4995343;28;20440;-88
2021/12/05 03:36:52;;;;;;;16.88;3.28;;;;;;;5.49;100.00;100158.91;4993810;28;20613;-89
2021/12/05 03:39:19;;;;;;;18.27;2.80;;;;;;;5.50;100.00;100189.16;4994807;28;20051;-88
2021/12/05 03:41:47;;;;;;;19.95;3.78;;;;;;;5.77;100.00;100187.59;4980484;28;20066;-88
2021/12/05 03:44:17;;;;;;;19.75;3.47;;;;;;;5.99;100.00;100187.03;4973690;28;20050;-88
2021/12/05 03:46:45;;;;;;;15.88;3.35;;;;;;;5.96;100.00;100195.75;4975664;28;20128;-89
2021/12/05 03:49:14;;;;;;;15.85;3.45;;;;;;;5.88;100.00;100185.56;4995713;28;20051;-89
2021/12/05 03:51:50;;;;;;;18.60;5.43;;;;;;;5.69;100.00;100166.16;4992996;28;20679;-89
2021/12/05 03:54:18;;;;;;;15.05;3.05;;;;;;;6.00;100.00;100196.53;4993955;28;20056;-88
2021/12/05 03:56:45;;;;;;;16.40;2.88;;;;;;;6.11;100.00;100215.28;4994071;28;20484;-89
2021/12/05 03:59:12;;;;;;;21.05;3.95;;;;;;;6.17;100.00;100216.88;4993625;28;20046;-88
2021/12/05 04:01:41;;;;;;;11.10;2.30;;;;;;;5.84;100.00;100194.34;4989236;28;20097;-89
2021/12/05 04:04:09;;;;;;;21.00;3.83;;;;;;;5.87;100.00;100199.41;4986790;28;20057;-89
2021/12/05 04:06:38;;;;;;;18.75;2.92;;;;;;;6.15;100.00;100205.66;4993822;28;20463;-89
2021/12/05 04:09:08;;;;;;;12.55;2.50;;;;;;;5.94;100.00;100175.88;4993947;28;20057;-89
2021/12/05 04:11:39;;;;;;;12.20;3.08;;;;;;;6.24;100.00;100224.44;4992546;28;20050;-88
2021/12/05 04:14:12;;;;;;;11.68;2.55;;;;;;;5.98;100.00;100250.28;4992911;28;20118;-90
2021/12/05 04:16:40;;;;;;;14.20;2.58;;;;;;;5.86;100.00;100241.91;4993253;28;20050;-87
2021/12/05 04:19:07;;;;;;;13.18;2.40;;;;;;;6.11;100.00;100267.28;4993526;28;20057;-89
2021/12/05 04:21:36;;;;;;;11.40;2.60;;;;;;;5.66;100.00;100270.13;4993460;28;20053;-89
2021/12/05 04:24:05;;;;;;;14.05;3.28;;;;;;;5.54;100.00;100275.63;4993325;28;20054;-88
2021/12/05 04:26:32;;;;;;;13.43;3.08;;;;;;;5.76;100.00;100262.97;4994370;28;20058;-88
2021/12/05 04:28:59;;;;;;;14.68;2.85;;;;;;;5.67;100.00;100275.28;4992336;28;20065;-87
2021/12/05 04:31:27;;;;;;;15.93;3.83;;;;;;;5.88;100.00;100260.06;4982106;28;20053;-87
2021/12/05 04:33:53;;;;;;;11.88;3.10;;;;;;;5.89;100.00;100277.34;4984903;28;20412;-88
2021/12/05 04:36:21;;;;;;;10.52;3.00;;;;;;;5.98;100.00;100274.53;4993932;28;20489;-88
2021/12/05 04:38:48;;;;;;;14.95;2.85;;;;;;;6.10;100.00;100262.13;4994321;28;20373;-88
2021/12/05 04:41:15;;;;;;;14.43;2.70;;;;;;;6.13;100.00;100295.84;4997165;28;20052;-88
2021/12/05 04:43:43;;;;;;;18.70;3.47;;;;;;;6.27;100.00;100278.97;5013739;28;20053;-87
2021/12/05 04:46:24;;;;;;;14.70;2.50;;;;;;;6.21;100.00;100302.50;5012240;28;20084;-88
2021/12/05 04:48:54;;;;;;;9.10;2.20;;;;;;;5.89;100.00;100285.97;5012160;28;20046;-87
2021/12/05 04:51:26;;;;;;;16.70;4.13;;;;;;;6.19;100.00;100299.09;5001418;28;20054;-88
2021/12/05 04:53:54;;;;;;;15.48;3.28;;;;;;;6.26;100.00;100285.03;4993971;28;20396;-88
2021/12/05 04:56:22;;;;;;;15.30;2.35;;;;;;;6.22;100.00;100296.44;4992235;28;20057;-88
2021/12/05 04:58:49;;;;;;;15.40;2.83;;;;;;;6.35;100.00;100312.56;4992003;28;20412;-88
2021/12/05 05:01:16;;;;;;;15.02;3.00;;;;;;;6.24;100.00;100322.41;4986537;28;20061;-87
2021/12/05 05:03:43;;;;;;;19.23;3.13;;;;;;;6.22;100.00;100334.59;4983335;28;20050;-88
2021/12/05 05:06:15;;;;;;;10.75;2.70;;;;;;;6.11;100.00;100332.25;4992355;28;20500;-87
2021/12/05 05:08:46;;;;;;;15.95;3.63;;;;;;;6.44;100.00;100348.69;4993564;28;20054;-87
2021/12/05 05:11:15;;;;;;;12.40;2.70;;;;;;;6.33;100.00;100335.16;4991848;28;20051;-87
2021/12/05 05:13:44;;;;;;;12.00;2.78;;;;;;;6.41;100.00;100361.81;4993678;28;20054;-88
2021/12/05 05:16:14;;;;;;;12.68;2.58;;;;;;;6.34;100.00;100339.47;4992032;28;20400;-88
2021/12/05 05:50:19;;;;;;;13.10;2.85;;;;;;;6.16;100.00;100417.91;4981998;28;20530;-87
2021/12/05 05:52:48;;;;;;;20.10;3.50;;;;;;;6.25;100.00;100415.94;4990739;28;20488;-88
2021/12/05 05:55:16;;;;;;;16.50;3.10;;;;;;;6.36;100.00;100433.88;4988422;28;20060;-88
2021/12/05 06:00:30;;;;;;;17.98;2.95;;;;;;;6.27;100.00;100436.72;4985090;28;20061;-88
2021/12/05 06:05:44;;;;;;;20.88;2.97;;;;;;;6.27;100.00;100455.75;4984630;28;20408;-88
2021/12/05 06:08:11;;;;;;;17.10;2.80;;;;;;;6.05;100.00;100471.00;4986640;28;20042;-88
2021/12/05 06:10:38;;;;;;;14.57;2.47;;;;;;;5.94;100.00;100472.13;5001960;28;20054;-88
2021/12/05 06:13:05;;;;;;;15.82;2.25;;;;;;;6.20;100.00;100488.00;4999093;28;20068;-89
2021/12/05 06:15:32;;;;;;;13.10;2.53;;;;;;;5.75;100.00;100495.06;4988495;28;20051;-89
2021/12/05 06:17:59;;;;;;;12.18;2.40;;;;;;;5.87;100.00;100487.84;4986336;28;20050;-89
2021/12/05 06:20:29;;;;;;;12.27;3.60;;;;;;;5.98;100.00;100491.97;4999940;28;20046;-88
2021/12/05 06:22:59;;;;;;;20.08;3.08;;;;;;;5.96;100.00;100492.00;4987838;28;20054;-89
2021/12/05 06:25:30;;;;;;;22.98;3.92;;;;;;;6.17;100.00;100497.63;4983323;28;20050;-88
2021/12/05 06:28:01;;;;;;;14.57;2.60;;;;;;;6.00;100.00;100517.06;4991382;28;20046;-89
2021/12/05 06:30:55;;;;;;;12.52;2.40;;;;;;;6.13;100.00;100515.03;5001153;28;20046;-90
2021/12/05 06:47:25;;;;;;;15.02;2.80;;;;;;;6.40;100.00;100560.34;4986188;28;20042;-88
2021/12/05 06:49:54;;;;;;;17.30;2.60;;;;;;;6.39;100.00;100561.25;5000718;28;20049;-88
2021/12/05 06:52:41;;;;;;;32.90;4.15;;;;;;;6.39;100.00;100557.78;4986731;28;20054;-88
2021/12/05 06:55:08;;;;;;;16.30;2.80;;;;;;;6.30;100.00;100558.84;4984870;28;20042;-88
2021/12/05 06:57:35;;;;;;;18.23;3.60;;;;;;;6.20;100.00;100559.97;4990451;28;20052;-89
2021/12/05 07:00:06;;;;;;;16.13;2.85;;;;;;;6.22;100.00;100574.63;4990517;28;20407;-88
2021/12/05 07:02:33;;;;;;;12.60;2.92;;;;;;;6.35;100.00;100575.19;4991171;28;20061;-88
2021/12/05 07:07:34;;;;;;;12.73;2.85;;;;;;;6.23;100.00;100559.88;5012038;28;20503;-89
2021/12/05 07:10:05;;;;;;;12.45;2.60;;;;;;;6.30;100.00;100599.59;5012173;28;20480;-90
2021/12/05 07:26:28;;;;;;;15.98;3.47;;;;;;;6.18;100.00;100637.09;5013021;28;20054;-90
2021/12/05 07:42:43;;;;;;;13.95;3.53;;;;;;;6.03;100.00;100615.75;4993625;28;20089;-86
2021/12/05 07:45:15;;;;;;;17.42;2.80;;;;;;;6.02;100.00;100595.84;5000126;28;20046;-86
2021/12/05 07:47:46;;;;;;;12.65;2.75;;;;;;;6.41;100.00;100660.00;5013992;28;20506;-87
2021/12/05 07:50:14;;;;;;;12.20;2.75;;;;;;;6.43;100.00;100656.50;4995105;28;20415;-86
2021/12/05 07:52:45;;;;;;;10.82;2.50;;;;;;;6.71;100.00;100670.63;4991909;28;20130;-86
2021/12/05 07:55:19;;;;;;;10.65;2.65;;;;;;;6.78;100.00;100677.41;4998588;28;20137;-86
2021/12/05 07:58:26;;;;;;;15.68;2.70;;;;;;;6.76;100.00;100674.84;5014229;28;20038;-86
2021/12/05 08:16:49;;;;;;;14.07;3.17;;;;;;;6.22;100.00;100701.16;5008314;28;20054;-89
2021/12/05 08:19:18;;;;;;;13.60;3.33;;;;;;;6.37;100.00;100702.59;5009228;28;20053;-90
2021/12/05 08:21:50;;;;;;;22.77;2.58;;;;;;;6.49;100.00;100710.13;4983881;28;20062;-90
2021/12/05 08:24:17;;;;;;;17.95;3.17;;;;;;;6.07;100.00;100704.91;4986032;28;20416;-89
2021/12/05 08:26:47;;;;;;;13.18;2.80;;;;;;;6.29;100.00;100704.50;4992089;28;20051;-89
2021/12/05 08:29:18;;;;;;;14.10;2.92;;;;;;;6.37;100.00;100715.59;4985355;28;20133;-90
2021/12/05 08:34:45;;;;;;;10.55;2.33;;;;;;;6.10;100.00;100712.66;4985227;28;20057;-89
2021/12/05 10:10:32;;;;;;;12.00;2.45;;;;;;;5.85;100.00;100869.00;4992478;28;20057;-90
2021/12/05 10:15:55;;;;;;;14.90;2.78;;;;;;;6.10;100.00;100853.03;4992166;28;20050;-91
2021/12/05 10:37:57;;;;;;;11.00;2.40;;;;;;;5.92;100.00;100882.75;4991336;28;20062;-90
2021/12/05 10:40:35;;;;;;;15.75;2.83;;;;;;;6.16;100.00;100885.88;4990998;28;20053;-90
2021/12/05 10:43:10;;;;;;;16.50;2.50;;;;;;;6.18;100.00;100852.88;4988725;28;20051;-90
2021/12/05 10:45:44;;;;;;;11.73;2.80;;;;;;;6.13;100.00;100870.34;4972002;28;20046;-91
2021/12/05 10:48:24;;;;;;;19.45;2.40;;;;;;;6.17;100.00;100901.44;4981969;28;20145;-91
2021/12/05 10:50:54;;;;;;;12.88;2.70;;;;;;;6.28;100.00;100896.06;4993648;28;20050;-89
2021/12/05 10:53:33;;;;;;;17.63;3.28;;;;;;;6.69;100.00;100904.84;4991533;28;20512;-91
2021/12/05 10:56:10;;;;;;;11.98;2.95;;;;;;;6.60;100.00;100905.03;4995331;28;20409;-91
2021/12/05 10:58:44;;;;;;;11.85;2.30;;;;;;;6.33;100.00;100888.19;4992294;28;20064;-91
2021/12/05 11:01:40;;;;;;;13.75;2.05;;;;;;;6.23;100.00;100892.66;4988317;28;20042;-91
2021/12/05 11:04:35;;;;;;;15.02;2.50;;;;;;;6.45;100.00;100906.19;4991642;28;20056;-90
2021/12/05 11:07:03;;;;;;;9.48;2.13;;;;;;;6.64;100.00;100911.91;4998392;28;20050;-91
2021/12/05 11:09:57;;;;;;;14.45;3.05;;;;;;;6.88;100.00;100914.94;5009018;28;20129;-89
2021/12/05 11:12:32;;;;;;;11.70;2.63;;;;;;;6.77;100.00;100907.31;4995707;28;20054;-90
2021/12/05 11:15:10;;;;;;;26.83;3.95;;;;;;;6.73;100.00;100903.94;4995019;28;20052;-90
2021/12/05 11:17:43;;;;;;;11.20;2.40;;;;;;;6.96;100.00;100900.03;4995300;28;20565;-90
2021/12/05 11:20:18;;;;;;;15.20;2.47;;;;;;;7.00;100.00;100923.34;4994845;28;20389;-90
2021/12/05 11:22:48;;;;;;;11.43;2.90;;;;;;;6.52;100.00;100912.97;4993909;28;20061;-90
2021/12/05 11:25:21;;;;;;;18.00;3.10;;;;;;;6.87;100.00;100936.63;4994715;28;20484;-90
2021/12/05 11:27:56;;;;;;;10.35;2.70;;;;;;;7.01;100.00;100922.47;4974821;28;20050;-90
2021/12/05 11:30:32;;;;;;;11.63;2.17;;;;;;;6.90;100.00;100915.75;4985287;28;20046;-91
2021/12/05 11:33:02;;;;;;;11.57;3.22;;;;;;;6.77;100.00;100929.00;4992653;28;20058;-90
2021/12/05 11:35:37;;;;;;;12.20;2.55;;;;;;;6.67;100.00;100930.03;4999368;28;20054;-89
2021/12/05 11:38:13;;;;;;;16.75;2.83;;;;;;;7.01;100.00;100930.28;4994111;28;20104;-90
2021/12/05 11:41:03;;;;;;;14.18;2.53;;;;;;;7.15;100.00;100935.22;4988293;28;20173;-90
2021/12/05 11:43:44;;;;;;;12.75;2.47;;;;;;;6.75;100.00;100927.31;4993964;28;20078;-89
2021/12/05 11:46:11;;;;;;;15.05;3.28;;;;;;;7.08;100.00;100946.63;4992689;28;20056;-90
2021/12/05 11:48:47;;;;;;;16.40;2.90;;;;;;;6.63;100.00;100929.25;4992926;28;20051;-88
2021/12/05 11:51:40;;;;;;;12.30;2.72;;;;;;;6.95;100.00;100939.94;4985467;28;20046;-88
2021/12/05 11:54:25;;;;;;;12.50;2.97;;;;;;;7.18;100.00;100949.91;4995078;28;20056;-89
2021/12/05 11:57:27;;;;;;;21.60;3.60;;;;;;;7.26;100.00;100948.03;4978625;28;20054;-89
2021/12/05 11:59:57;;;;;;;11.48;2.78;;;;;;;7.10;100.00;100949.19;4990767;28;20056;-88
2021/12/05 12:02:28;;;;;;;9.98;2.40;;;;;;;7.24;100.00;100960.19;4989863;28;20054;-90
2021/12/05 12:04:58;;;;;;;17.55;2.50;;;;;;;7.37;100.00;100958.22;4994083;28;20081;-90
2021/12/05 12:07:28;;;;;;;11.57;3.05;;;;;;;6.94;100.00;100956.44;4977196;28;20064;-89
2021/12/05 12:10:20;;;;;;;10.15;2.40;;;;;;;7.13;100.00;100964.75;4980069;28;20465;-89
2021/12/05 12:12:59;;;;;;;9.73;4.25;;;;;;;6.82;100.00;100965.34;4991552;28;20495;-89
2021/12/05 12:15:27;;;;;;;15.15;3.00;;;;;;;7.02;100.00;100951.97;4995027;28;20054;-90
2021/12/05 12:18:04;;;;;;;13.90;2.95;;;;;;;6.97;100.00;100956.38;4994091;28;20050;-90
2021/12/05 12:20:33;;;;;;;16.00;2.90;;;;;;;7.16;100.00;100975.13;4993478;28;20519;-90
2021/12/05 12:23:00;;;;;;;16.02;2.58;;;;;;;7.16;100.00;100951.69;4993523;28;20054;-91
2021/12/05 12:25:31;;;;;;;8.90;2.67;;;;;;;7.20;100.00;100953.34;4996075;28;20050;-88
2021/12/05 12:27:58;;;;;;;10.55;2.83;;;;;;;7.22;100.00;100968.06;4993754;28;20054;-91
2021/12/05 12:30:28;;;;;;;9.57;2.88;;;;;;;7.24;100.00;100957.59;4993056;28;20061;-87
2021/12/05 12:33:02;;;;;;;20.05;3.78;;;;;;;6.80;100.00;100962.78;4985394;28;20054;-90
2021/12/05 12:35:33;;;;;;;14.55;2.90;;;;;;;7.02;100.00;100964.97;5009836;28;20325;-89
2021/12/05 12:38:09;;;;;;;14.63;2.00;;;;;;;7.41;100.00;100978.09;4993257;28;20057;-89
2021/12/05 12:40:38;;;;;;;10.35;2.30;;;;;;;7.59;100.00;100979.44;4992651;28;20042;-89
2021/12/05 12:43:07;;;;;;;8.18;2.55;;;;;;;7.49;100.00;100978.81;4993005;28;20058;-89
2021/12/05 12:45:40;;;;;;;12.77;2.58;;;;;;;7.46;100.00;100963.22;4995785;28;20061;-90
2021/12/05 12:48:16;;;;;;;11.13;2.95;;;;;;;7.18;100.00;100960.31;5002016;28;20406;-89
2021/12/05 12:50:51;;;;;;;10.48;3.03;;;;;;;7.11;100.00;100962.19;4989925;28;20053;-90
2021/12/05 12:53:24;;;;;;;14.75;2.85;;;;;;;7.56;100.00;100969.09;4988338;28;20048;-90
2021/12/05 12:56:02;;;;;;;12.07;2.95;;;;;;;7.28;100.00;100958.38;4989762;28;20097;-91
2021/12/05 12:58:50;;;;;;;16.67;2.75;;;;;;;7.24;100.00;100978.41;4997525;28;20058;-91
2021/12/05 13:04:37;;;;;;;;;;;;;;;7.23;100.00;100968.91;4977519;28;20137;-90
2021/12/05 13:12:49;;;;;;;11.50;2.42;;;;;;;6.71;100.00;100943.84;4981419;28;20141;-91
2021/12/05 13:15:27;;;;;;;12.65;2.35;;;;;;;6.74;100.00;100964.63;4990510;28;20052;-90
2021/12/05 13:18:03;;;;;;;10.70;2.30;;;;;;;6.65;100.00;100958.69;4991254;28;20042;-89
2021/12/05 13:20:42;;;;;;;11.55;2.30;;;;;;;6.54;100.00;100973.66;4988807;28;20047;-90
2021/12/05 13:23:14;;;;;;;13.27;2.50;;;;;;;6.70;100.00;100968.19;4990245;28;20528;-90
2021/12/05 13:26:11;;;;;;;11.77;2.22;;;;;;;6.53;100.00;100976.25;4987661;28;20478;-89
2021/12/05 13:29:04;;;;;;;8.80;2.10;;;;;;;6.38;100.00;100959.19;4989510;28;20092;-88
2021/12/05 13:31:31;;;;;;;6.65;2.10;;;;;;;6.55;100.00;100972.78;4984248;28;20061;-88
2021/12/05 13:34:16;;;;;;;9.63;2.47;;;;;;;6.35;100.00;100975.69;4984087;28;20050;-89
2021/12/05 13:36:55;;;;;;;14.80;2.10;;;;;;;6.41;100.00;100959.13;4991398;28;20050;-89
2021/12/05 13:39:32;;;;;;;14.98;2.50;;;;;;;6.62;100.00;100990.00;4993465;28;20758;-90
2021/12/05 13:42:22;;;;;;;12.35;2.42;;;;;;;6.62;100.00;100994.31;4985312;28;20499;-89
2021/12/05 13:45:03;;;;;;;9.40;2.08;;;;;;;6.65;100.00;100996.88;4994232;28;20472;-88
2021/12/05 13:47:37;;;;;;;10.00;2.75;;;;;;;6.51;100.00;100994.50;4989021;28;20061;-87
2021/12/05 13:50:19;;;;;;;12.07;1.95;;;;;;;6.73;100.00;100995.00;4986578;28;20046;-90
2021/12/05 13:53:09;;;;;;;11.25;2.78;;;;;;;6.68;100.00;101002.03;5001339;28;20386;-90
2021/12/05 13:55:54;;;;;;;12.75;2.47;;;;;;;6.68;99.42;101007.22;4985606;28;20050;-89
2021/12/05 13:58:34;;;;;;;11.75;2.38;;;;;;;6.69;98.66;101000.28;4986697;28;20054;-89
2021/12/05 14:01:15;;;;;;;11.95;2.17;;;;;;;6.56;96.22;100992.69;4989800;28;20042;-90
2021/12/05 14:03:57;;;;;;;9.07;2.22;;;;;;;6.63;95.64;100990.84;4982255;28;20504;-89
2021/12/05 14:06:44;;;;;;;11.55;2.70;;;;;;;6.62;93.79;100990.00;4989188;28;20050;-90
2021/12/05 14:09:26;;;;;;;12.85;3.00;;;;;;;6.61;93.56;100997.81;4986341;28;20045;-90
2021/12/05 14:12:28;;;;;;;14.13;2.97;;;;;;;6.56;94.25;101010.03;4987647;28;20057;-88
2021/12/05 14:14:56;;;;;;;11.00;2.85;;;;;;;6.49;92.17;101009.28;4993122;28;20057;-89
2021/12/05 14:17:28;;;;;;;14.82;4.13;;;;;;;6.43;92.35;100997.25;4992216;28;20057;-89
2021/12/05 14:20:00;;;;;;;9.95;2.75;;;;;;;6.69;91.75;101011.53;4990993;28;20047;-88
2021/12/05 14:22:31;;;;;;;10.20;2.67;;;;;;;6.57;93.55;101014.34;4990635;28;20473;-89
2021/12/05 14:25:03;;;;;;;10.90;2.88;;;;;;;6.57;93.79;101019.53;4995129;28;20050;-90
2021/12/05 14:27:34;;;;;;;9.02;3.13;;;;;;;6.49;92.16;101006.69;4995714;28;20064;-89
2021/12/05 14:30:05;;;;;;;12.80;2.95;;;;;;;6.40;92.24;101004.22;4995457;28;20133;-88
2021/12/05 14:32:37;;;;;;;13.40;3.10;;;;;;;6.45;91.09;101026.69;4994356;28;20060;-89
2021/12/05 14:35:06;;;;;;;11.83;3.17;;;;;;;6.41;90.06;101027.63;4992758;28;20416;-91
2021/12/05 14:37:35;;;;;;;18.23;3.17;;;;;;;6.45;90.71;101031.03;4996417;28;20630;-86
2021/12/05 14:40:08;;;;;;;13.68;3.50;;;;;;;6.26;92.17;101025.25;4991867;28;20492;-89
2021/12/05 14:42:38;;;;;;;8.32;2.50;;;;;;;6.16;93.20;101028.84;4993487;28;20050;-89
2021/12/05 14:45:14;;;;;;;11.88;2.83;;;;;;;6.06;94.71;101042.00;4995821;28;20050;-87
2021/12/05 14:47:43;;;;;;;12.77;3.03;;;;;;;6.17;93.85;101041.84;4996305;28;20065;-90
2021/12/05 14:50:18;;;;;;;10.68;3.22;;;;;;;6.03;94.57;101029.03;4996020;28;20047;-89
2021/12/05 14:52:48;;;;;;;11.57;2.60;;;;;;;6.05;95.15;101036.81;4995309;28;20051;-89
2021/12/05 14:55:19;;;;;;;13.65;3.05;;;;;;;5.90;94.73;101038.72;4995226;28;20520;-89
2021/12/05 14:57:52;;;;;;;16.30;4.57;;;;;;;5.94;97.28;101038.69;4995077;28;20054;-89
2021/12/05 15:00:19;;;;;;;9.60;2.53;;;;;;;6.01;100.00;101053.34;4994441;28;20050;-86
2021/12/05 15:02:46;;;;;;;11.90;3.25;;;;;;;5.95;97.17;101048.19;4984865;28;20050;-87
2021/12/05 15:05:18;;;;;;;11.27;2.53;;;;;;;5.87;96.66;101024.91;4994976;28;20112;-89
2021/12/05 15:07:46;;;;;;;19.60;3.70;;;;;;;5.88;97.04;101042.22;4995157;28;20539;-89
2021/12/05 15:10:20;;;;;;;9.10;3.58;;;;;;;5.78;100.00;101028.47;4980703;28;20129;-87
2021/12/05 15:12:52;;;;;;;14.55;4.57;;;;;;;5.77;98.63;101060.56;5010089;28;20603;-89
2021/12/05 15:15:22;;;;;;;16.38;5.20;;;;;;;5.73;100.00;101043.28;4985810;28;20061;-88
2021/12/05 15:17:53;;;;;;;;;;;;;;;5.93;100.00;101057.75;4992362;28;20054;-88
2021/12/05 15:20:26;;;;;;;19.15;4.60;;;;;;;5.76;98.17;101035.44;4988540;28;19921;-88
2021/12/05 15:22:59;;;;;;;13.35;3.95;;;;;;;5.69;98.85;101032.06;4993974;28;20054;-88
2021/12/05 15:25:30;;;;;;;13.07;3.90;;;;;;;5.79;98.18;101069.19;4994563;28;20057;-88
2021/12/05 15:27:58;;;;;;;15.43;4.78;;;;;;;5.71;99.33;101068.41;4978689;28;20051;-88
2021/12/05 15:30:41;;;;;;;10.98;3.38;;;;;;;5.58;100.00;101066.81;4981406;28;20444;-88
2021/12/05 15:33:11;;;;;;;13.18;3.67;;;;;;;5.62;100.00;101065.94;4994056;28;20409;-88
2021/12/05 15:35:39;;;;;;;12.38;3.55;;;;;;;5.60;100.00;101058.16;4982286;28;20051;-88
2021/12/05 15:38:09;;;;;;;9.82;2.45;;;;;;;5.53;100.00;101053.91;4990300;28;20047;-88
2021/12/05 15:40:45;;;;;;;10.65;3.65;;;;;;;5.44;100.00;101054.03;4993200;28;20481;-89
2021/12/05 15:43:14;;;;;;;10.65;3.33;;;;;;;5.27;100.00;101059.38;4994299;28;20050;-88
2021/12/05 15:45:44;;;;;;;16.23;4.57;;;;;;;5.20;100.00;101062.91;4996172;28;20046;-88
2021/12/05 15:48:31;;;;;;;13.13;3.25;;;;;;;5.41;100.00;101069.63;4993682;28;20086;-88
2021/12/05 15:51:03;;;;;;;16.42;3.20;;;;;;;5.14;100.00;101048.28;4989878;28;20046;-89
2021/12/05 15:53:33;;;;;;;21.88;3.65;;;;;;;5.31;100.00;101043.78;4975646;28;20051;-89
2021/12/05 15:56:13;;;;;;;10.95;3.03;;;;;;;5.40;100.00;101071.38;4975831;28;20110;-88
2021/12/05 15:58:58;;;;;;;10.45;2.78;;;;;;;5.33;100.00;101069.72;4975123;28;20137;-87
2021/12/05 16:01:26;;;;;;;9.00;2.42;;;;;;;5.22;100.00;101069.81;4992659;28;20049;-91
2021/12/05 16:03:58;;;;;;;6.07;2.30;;;;;;;5.07;100.00;101050.06;4995003;28;20046;-92
2021/12/05 16:06:36;;;;;;;13.15;2.60;;;;;;;5.29;100.00;101063.69;4982951;28;20069;-92
2021/12/05 16:09:18;;;;;;;10.10;2.60;;;;;;;5.35;100.00;101074.88;4991731;28;20073;-92
2021/12/05 16:11:48;;;;;;;12.20;2.50;;;;;;;5.29;100.00;101079.28;4987039;28;20050;-92
2021/12/05 16:14:30;;;;;;;9.57;2.97;;;;;;;4.99;100.00;101054.47;4994701;28;20084;-92
2021/12/05 16:16:58;;;;;;;9.85;2.60;;;;;;;5.18;100.00;101070.72;4995197;28;20452;-92
2021/12/05 16:19:25;;;;;;;10.32;2.88;;;;;;;4.75;100.00;101012.31;4994906;28;20046;-92
2021/12/05 16:21:52;;;;;;;12.52;2.70;;;;;;;4.99;100.00;101046.66;4994402;28;20047;-92
2021/12/05 16:24:23;;;;;;;12.30;2.90;;;;;;;4.95;100.00;101043.25;4995106;28;20054;-92
2021/12/05 16:26:51;;;;;;;14.07;3.95;;;;;;;5.04;100.00;101082.97;4995022;28;20068;-85
2021/12/05 16:29:22;;;;;;;15.70;5.18;;;;;;;5.03;100.00;101083.84;4994731;28;20053;-90
2021/12/05 16:31:57;;;;;;;7.93;2.83;;;;;;;4.73;100.00;101070.28;4992839;28;20061;-90
2021/12/05 16:34:31;;;;;;;9.20;3.30;;;;;;;4.77;100.00;101077.16;4993643;28;20046;-89
2021/12/05 16:37:05;;;;;;;10.75;3.60;;;;;;;4.86;100.00;101082.25;4978733;28;20400;-89
2021/12/05 16:39:38;;;;;;;18.95;4.72;;;;;;;4.81;100.00;101088.38;4992681;28;20046;-89
2021/12/05 16:42:12;;;;;;;11.00;3.22;;;;;;;4.80;100.00;101090.09;4991993;28;20046;-89
2021/12/05 16:44:49;;;;;;;13.98;4.05;;;;;;;4.65;100.00;101096.25;4992556;28;20058;-89
2021/12/05 16:47:22;;;;;;;10.30;3.53;;;;;;;4.43;100.00;101079.16;4991897;28;20506;-89
2021/12/05 16:49:52;;;;;;;15.05;3.35;;;;;;;4.56;100.00;101098.91;4993124;28;20054;-90
2021/12/05 16:52:20;;;;;;;16.15;3.05;;;;;;;4.60;100.00;101103.19;4989138;28;20054;-90
2021/12/05 16:54:50;;;;;;;14.23;3.35;;;;;;;4.47;100.00;101107.63;5007151;28;20400;-89
2021/12/05 16:57:24;;;;;;;16.50;3.55;;;;;;;4.42;100.00;101108.53;4992522;28;20460;-90
2021/12/05 16:59:54;;;;;;;12.10;3.45;;;;;;;4.35;100.00;101105.09;4992174;28;20069;-91
2021/12/05 17:02:33;;;;;;;10.40;3.05;;;;;;;4.56;100.00;101099.78;4988357;28;20412;-89
2021/12/05 17:05:21;;;;;;;10.90;2.95;;;;;;;4.45;100.00;101087.78;4978914;28;20413;-89
2021/12/05 17:08:09;;;;;;;12.90;3.10;;;;;;;4.30;100.00;101105.16;4984046;28;20507;-89
2021/12/05 17:10:36;;;;;;;7.30;2.20;;;;;;;4.35;100.00;101108.53;4991214;28;20051;-89
2021/12/05 17:13:23;;;;;;;11.63;2.72;;;;;;;4.32;100.00;101093.03;4992692;28;20046;-88
2021/12/05 17:16:05;;;;;;;10.07;2.78;;;;;;;4.34;100.00;101100.81;4987202;28;20082;-93
2021/12/05 17:29:08;;;;;;;15.18;3.10;;;;;;;4.51;100.00;101111.91;5090567;27;20376;-90
2021/12/05 17:31:48;;;;;;;9.10;2.90;;;;;;;4.26;100.00;101095.66;5077768;28;20044;-91
2021/12/05 17:34:19;;;;;;;10.93;2.88;;;;;;;4.06;100.00;101063.81;5082249;28;20490;-84
2021/12/05 17:36:55;;;;;;;16.15;3.65;;;;;;;4.28;100.00;101093.06;5083099;28;20662;-89
2021/12/05 17:39:27;;;;;;;14.73;5.00;;;;;;;4.22;100.00;101117.28;5076195;28;20048;-89
2021/12/05 17:41:57;;;;;;;11.55;3.42;;;;;;;4.13;100.00;101097.47;5077119;28;20055;-89
2021/12/05 17:44:24;;;;;;;12.45;3.72;;;;;;;4.10;100.00;101092.28;5080266;28;20044;-89
2021/12/05 17:46:54;;;;;;;8.98;3.17;;;;;;;4.21;100.00;101091.38;5076712;28;20059;-89
2021/12/05 17:49:24;;;;;;;15.85;4.05;;;;;;;4.07;100.00;101092.31;5083245;28;20058;-89
2021/12/05 17:51:51;;;;;;;9.68;2.80;;;;;;;4.12;100.00;101092.28;5099977;28;20044;-89
2021/12/05 17:54:28;;;;;;;8.38;2.83;;;;;;;4.03;100.00;101079.38;5079727;28;20052;-89
2021/12/05 17:56:57;;;;;;;10.75;3.40;;;;;;;3.78;100.00;101045.81;5079343;28;20399;-88
2021/12/05 18:04:55;;;;;;;11.10;4.53;;;;;;;3.49;100.00;101058.84;5081553;28;20099;-90